Time;durP1;ratioP1;P1;durP2;ratioP2;P2;SDS_P1;SDS_P2;PMS_P1;PMS_P2;Temp;Humidity;BMP_temperature;BMP_pressure;BME280_temperature;BME280_humidity;BME280_pressure;Samples;Min_cycle;Max_cycle;Signal;HPM_P1;HPM_P2
2022/05/19 00:01:59;;;;;;;;;10.50;10.50;;;;;26.67;48.96;101128.47;5043224;28;45421;-69
2022/05/19 00:04:26;;;;;;;;;9.00;9.00;;;;;26.58;48.63;101116.47;5057553;28;45431;-69
2022/05/19 00:06:51;;;;;;;;;9.00;8.50;;;;;26.65;49.01;101130.47;5061589;28;45455;-69
2022/05/19 00:09:18;;;;;;;;;9.50;9.50;;;;;26.60;48.83;101137.22;5061485;28;45425;-69
2022/05/19 00:11:45;;;;;;;;;11.00;10.00;;;;;26.59;49.35;101130.00;5061669;28;45589;-69
2022/05/19 00:14:10;;;;;;;;;10.25;10.25;;;;;26.45;48.85;101116.78;5059426;28;45342;-69
2022/05/19 00:16:36;;;;;;;;;11.75;11.75;;;;;26.53;49.13;101137.94;5043109;28;45461;-69
2022/05/19 00:19:01;;;;;;;;;9.75;9.75;;;;;26.32;49.39;101102.50;5059655;28;47515;-69
2022/05/19 00:21:27;;;;;;;;;11.25;9.50;;;;;26.56;49.53;101149.47;5061356;28;45258;-69
2022/05/19 00:23:52;;;;;;;;;9.00;9.00;;;;;26.45;49.27;101133.19;5042529;28;45454;-69
2022/05/19 00:26:18;;;;;;;;;10.50;9.25;;;;;26.38;49.67;101121.06;5043394;28;45568;-69
2022/05/19 00:28:43;;;;;;;;;8.50;7.50;;;;;26.43;49.19;101121.53;5061169;28;46248;-68
2022/05/19 00:31:09;;;;;;;;;9.50;8.50;;;;;26.47;49.52;101122.09;5059526;28;45224;-69
2022/05/19 00:33:35;;;;;;;;;8.00;7.25;;;;;26.49;49.90;101131.03;5061607;28;45327;-68
2022/05/19 00:36:09;;;;;;;;;12.25;12.25;;;;;26.33;50.04;101098.75;5060349;28;45453;-69
2022/05/19 00:38:34;;;;;;;;;14.75;14.75;;;;;26.39;50.21;101114.59;5061383;28;46415;-68
2022/05/19 00:41:00;;;;;;;;;14.25;14.25;;;;;26.28;49.86;101091.00;5061379;28;45236;-69
2022/05/19 00:43:33;;;;;;;;;13.00;13.00;;;;;26.34;50.10;101101.34;5061244;28;45500;-68
2022/05/19 00:46:15;;;;;;;;;11.50;11.50;;;;;26.37;49.61;101103.78;5042276;28;45938;-69
2022/05/19 00:48:44;;;;;;;;;11.00;11.00;;;;;26.37;50.08;101111.16;5047877;28;45353;-69
2022/05/19 00:51:12;;;;;;;;;12.75;12.25;;;;;26.36;49.70;101103.94;5047613;28;45225;-68
2022/05/19 00:53:51;;;;;;;;;9.75;9.00;;;;;26.32;50.26;101095.16;5060740;28;45410;-69
2022/05/19 00:56:24;;;;;;;;;11.75;10.50;;;;;26.31;50.19;101077.03;5058433;28;45617;-69
2022/05/19 00:59:05;;;;;;;;;10.00;10.00;;;;;26.25;49.89;101081.19;5061328;28;45315;-68
2022/05/19 01:01:33;;;;;;;;;9.75;9.25;;;;;26.29;50.58;101089.09;5056497;28;45479;-69
2022/05/19 01:04:05;;;;;;;;;11.00;11.00;;;;;26.22;50.53;101070.53;5035011;28;45451;-69
2022/05/19 01:06:33;;;;;;;;;10.50;10.00;;;;;26.25;50.44;101085.81;5059120;28;45228;-68
2022/05/19 01:09:03;;;;;;;;;13.00;10.75;;;;;26.21;50.62;101079.75;5058376;28;45613;-69
2022/05/19 01:11:29;;;;;;;;;12.25;10.75;;;;;26.21;50.12;101073.41;5042225;28;46149;-68
2022/05/19 01:13:54;;;;;;;;;9.75;9.75;;;;;26.16;50.74;101072.97;5044495;28;45280;-69
2022/05/19 01:16:21;;;;;;;;;11.75;10.75;;;;;26.14;51.05;101067.63;5059546;28;45508;-69
2022/05/19 01:18:47;;;;;;;;;10.00;9.00;;;;;25.93;50.69;101031.31;5060221;28;45747;-69
2022/05/19 01:21:15;;;;;;;;;11.25;10.25;;;;;26.17;51.22;101064.63;5060338;28;45484;-69
2022/05/19 01:24:16;;;;;;;;;11.50;11.00;;;;;26.14;50.76;101073.09;5058781;28;45404;-68
2022/05/19 01:26:46;;;;;;;;;9.50;9.00;;;;;26.13;51.34;101063.19;5042400;28;45248;-69
2022/05/19 01:29:13;;;;;;;;;11.00;11.00;;;;;25.83;50.75;101015.78;5054418;28;45371;-68
2022/05/19 01:31:49;;;;;;;;;11.75;11.75;;;;;26.08;51.50;101057.28;5051819;28;45873;-69
2022/05/19 01:34:15;;;;;;;;;11.50;10.50;;;;;25.98;51.63;101048.22;5049359;28;45349;-68
2022/05/19 01:36:41;;;;;;;;;13.00;12.25;;;;;26.01;51.01;101057.00;5060437;28;45253;-68
2022/05/19 01:39:10;;;;;;;;;9.50;9.50;;;;;26.06;50.61;101062.00;5060309;28;46048;-69
2022/05/19 01:42:00;;;;;;;;;11.50;11.25;;;;;26.06;50.73;101062.91;5059118;28;45403;-68
2022/05/19 01:44:31;;;;;;;;;7.00;7.00;;;;;26.05;51.39;101058.41;5057710;28;45343;-69
2022/05/19 01:47:23;;;;;;;;;11.00;11.00;;;;;26.03;51.28;101065.06;5041878;28;46081;-69
2022/05/19 01:49:51;;;;;;;;;9.25;9.25;;;;;25.99;51.72;101077.28;5060084;28;46216;-68
2022/05/19 01:52:30;;;;;;;;;11.00;11.00;;;;;25.87;51.62;101063.69;5060341;28;45332;-69
2022/05/19 01:55:16;;;;;;;;;10.25;8.25;;;;;25.93;51.70;101077.78;5059192;28;46145;-68
2022/05/19 01:57:42;;;;;;;;;11.25;11.25;;;;;25.94;51.79;101074.06;5042384;28;45312;-68
2022/05/19 02:00:20;;;;;;;;;12.00;12.00;;;;;25.82;51.55;101057.78;5041988;28;47145;-69
2022/05/19 02:02:48;;;;;;;;;11.50;11.25;;;;;25.90;51.92;101068.03;5049228;28;45421;-68
2022/05/19 02:05:25;;;;;;;;;9.75;9.75;;;;;25.86;52.32;101064.72;5058551;28;45496;-69
2022/05/19 02:07:55;;;;;;;;;11.25;11.25;;;;;25.87;51.77;101068.31;5058224;28;45411;-69
2022/05/19 02:10:27;;;;;;;;;11.50;11.50;;;;;25.54;52.67;101012.97;5041666;28;48477;-69
2022/05/19 02:12:55;;;;;;;;;12.25;11.25;;;;;25.77;52.35;101057.34;5049820;28;45355;-69
2022/05/19 02:15:24;;;;;;;;;9.75;9.75;;;;;25.78;52.21;101061.81;5040930;28;45529;-68
2022/05/19 02:17:52;;;;;;;;;10.00;10.00;;;;;25.79;52.58;101065.41;5059823;28;45200;-69
2022/05/19 02:20:22;;;;;;;;;9.50;9.50;;;;;25.59;52.20;101042.63;5041571;28;47178;-68
2022/05/19 02:22:47;;;;;;;;;12.25;11.00;;;;;25.66;52.77;101061.06;5058502;28;45431;-69
2022/05/19 02:25:34;;;;;;;;;12.25;11.50;;;;;25.72;52.37;101069.72;5059002;28;45486;-68
2022/05/19 02:28:05;;;;;;;;;12.25;11.50;;;;;25.64;52.58;101060.38;5048806;28;45336;-68
2022/05/19 02:30:36;;;;;;;;;11.75;10.75;;;;;25.65;53.15;101069.41;5041164;28;47061;-70
2022/05/19 02:33:02;;;;;;;;;12.50;11.25;;;;;25.66;52.75;101069.28;5031063;28;46234;-69
2022/05/19 02:35:28;;;;;;;;;11.00;11.00;;;;;25.61;53.34;101060.63;5056066;28;45503;-69
2022/05/19 02:37:56;;;;;;;;;8.75;8.75;;;;;25.50;53.42;101049.81;5059451;28;45299;-68
2022/05/19 02:40:24;;;;;;;;;10.75;10.75;;;;;25.58;53.10;101060.91;5041228;28;46312;-69
2022/05/19 02:42:50;;;;;;;;;10.75;10.75;;;;;25.54;52.80;101058.59;5059482;28;45398;-68
2022/05/19 02:45:19;;;;;;;;;10.00;10.00;;;;;25.55;52.94;101063.91;5058552;28;45635;-69
2022/05/19 02:47:45;;;;;;;;;14.25;11.75;;;;;25.48;52.96;101038.16;5059133;28;45520;-69
2022/05/19 02:50:12;;;;;;;;;11.25;10.00;;;;;25.59;53.18;101064.50;5059246;28;45501;-69
2022/05/19 02:52:37;;;;;;;;;13.50;12.25;;;;;25.54;53.35;101062.19;5050805;28;45929;-69
2022/05/19 02:55:04;;;;;;;;;12.00;11.25;;;;;25.52;52.87;101067.78;5060854;28;45517;-68
2022/05/19 02:57:29;;;;;;;;;12.25;12.00;;;;;25.54;53.29;101064.91;5040308;28;45421;-69
2022/05/19 02:59:55;;;;;;;;;14.50;11.75;;;;;25.52;53.03;101062.31;5062769;28;46204;-68
2022/05/19 03:02:20;;;;;;;;;15.75;15.50;;;;;25.47;53.20;101061.88;5051671;28;45320;-68
2022/05/19 03:04:46;;;;;;;;;10.75;10.75;;;;;25.48;53.18;101063.63;5085754;22;46839;-68
2022/05/19 03:07:11;;;;;;;;;13.75;11.25;;;;;25.33;53.37;101045.88;5066836;28;45451;-69
2022/05/19 03:09:38;;;;;;;;;12.75;11.50;;;;;25.25;53.19;101043.78;5062628;28;45335;-68
2022/05/19 03:12:04;;;;;;;;;12.75;12.25;;;;;25.42;53.81;101071.50;5062512;28;45325;-68
2022/05/19 03:14:30;;;;;;;;;15.00;14.50;;;;;25.46;53.52;101072.94;5066255;28;45250;-68
2022/05/19 03:16:56;;;;;;;;;10.50;10.50;;;;;25.33;54.07;101054.06;5062593;28;45505;-68
2022/05/19 03:19:21;;;;;;;;;14.50;12.50;;;;;25.42;53.50;101066.88;5062509;28;46661;-68
2022/05/19 03:21:47;;;;;;;;;12.75;11.75;;;;;25.32;53.79;101049.59;5062698;28;45297;-69
2022/05/19 03:24:12;;;;;;;;;13.75;12.25;;;;;25.33;53.89;101056.81;5063224;28;45398;-68
2022/05/19 03:26:38;;;;;;;;;12.00;12.00;;;;;25.16;53.97;101033.72;5078077;28;45528;-68
2022/05/19 03:29:03;;;;;;;;;13.25;12.50;;;;;25.14;54.25;101036.56;5062419;28;45937;-68
2022/05/19 03:31:29;;;;;;;;;14.25;13.75;;;;;25.33;53.91;101071.31;5078056;28;45246;-68
2022/05/19 03:33:54;;;;;;;;;13.50;13.50;;;;;25.19;54.09;101048.94;5059475;28;45280;-68
2022/05/19 03:36:21;;;;;;;;;12.75;12.75;;;;;25.25;53.82;101051.13;5060996;28;45622;-68
2022/05/19 03:38:47;;;;;;;;;10.75;10.00;;;;;25.31;53.99;101067.88;5077835;28;47403;-68
2022/05/19 03:41:12;;;;;;;;;15.25;12.75;;;;;25.31;54.28;101064.28;5062128;28;45325;-69
2022/05/19 03:43:38;;;;;;;;;12.00;12.00;;;;;25.26;54.02;101061.97;5061373;28;46074;-68
2022/05/19 03:46:03;;;;;;;;;12.33;11.67;;;;;25.28;54.05;101059.09;5071968;27;45446;-68
2022/05/19 03:48:37;;;;;;;;;12.25;12.25;;;;;25.24;53.78;101055.75;5062389;28;46948;-68
2022/05/19 03:51:07;;;;;;;;;16.00;15.00;;;;;25.00;54.38;101026.00;5062103;28;45531;-68
2022/05/19 03:53:32;;;;;;;;;10.25;10.25;;;;;25.20;54.42;101070.66;5062095;28;45267;-68
2022/05/19 03:55:58;;;;;;;;;14.00;12.50;;;;;25.20;54.26;101070.66;5066961;28;45194;-69
2022/05/19 03:58:23;;;;;;;;;10.50;10.50;;;;;25.18;54.15;101066.34;5060830;28;47141;-68
2022/05/19 04:00:49;;;;;;;;;13.00;13.00;;;;;25.17;54.86;101070.94;5060591;28;45324;-68
2022/05/19 04:03:14;;;;;;;;;14.00;13.00;;;;;25.05;55.01;101053.75;5048102;28;45323;-68
2022/05/19 04:05:40;;;;;;;;;13.00;13.00;;;;;25.17;54.37;101078.25;5062338;28;45611;-68
2022/05/19 04:08:08;;;;;;;;;11.75;11.25;;;;;25.02;54.57;101059.50;5077126;28;47957;-68
2022/05/19 04:10:34;;;;;;;;;10.50;10.50;;;;;24.93;54.71;101050.25;5061800;28;45260;-69
2022/05/19 04:12:59;;;;;;;;;11.25;10.75;;;;;25.00;54.62;101057.91;5060630;28;45469;-68
2022/05/19 04:15:25;;;;;;;;;12.00;12.00;;;;;25.01;54.66;101056.91;5052981;28;45351;-69
2022/05/19 04:17:51;;;;;;;;;11.75;11.75;;;;;24.97;55.32;101053.59;5077197;28;47209;-68
2022/05/19 04:20:16;;;;;;;;;15.75;14.00;;;;;24.99;54.55;101061.63;5061617;28;45382;-68
2022/05/19 04:22:42;;;;;;;;;11.50;11.00;;;;;25.04;55.18;101065.72;5061155;28;45307;-68
2022/05/19 04:25:10;;;;;;;;;14.25;12.50;;;;;25.02;54.44;101067.69;5061825;28;45363;-69
2022/05/19 04:27:36;;;;;;;;;11.00;11.00;;;;;24.85;54.91;101036.41;5060224;28;46300;-69
2022/05/19 04:30:03;;;;;;;;;12.00;10.25;;;;;24.98;54.92;101060.78;5061585;28;45241;-68
2022/05/19 04:32:28;;;;;;;;;13.75;13.75;;;;;24.74;55.19;101020.13;5062314;28;45425;-68
2022/05/19 04:34:54;;;;;;;;;12.00;12.00;;;;;24.96;55.30;101066.38;5064367;27;45589;-69
2022/05/19 04:37:19;;;;;;;;;11.50;11.50;;;;;24.93;55.15;101069.38;5076741;28;47099;-69
2022/05/19 04:39:44;;;;;;;;;11.75;11.00;;;;;24.93;54.99;101068.53;5061442;28;45552;-68
2022/05/19 04:42:12;;;;;;;;;13.25;13.25;;;;;24.77;54.94;101048.03;5069263;28;45576;-68
2022/05/19 04:44:39;;;;;;;;;13.25;13.25;;;;;24.96;54.95;101076.44;5061322;28;45349;-69
2022/05/19 04:47:05;;;;;;;;;11.50;11.50;;;;;24.87;54.61;101061.72;5060855;28;46667;-70
2022/05/19 04:49:31;;;;;;;;;13.75;13.00;;;;;24.78;54.61;101051.63;5059788;28;45342;-69
2022/05/19 04:51:56;;;;;;;;;12.00;11.00;;;;;24.96;55.04;101076.44;5064504;28;45425;-68
2022/05/19 04:54:22;;;;;;;;;12.25;11.25;;;;;24.89;54.90;101067.03;5061182;28;45234;-68
2022/05/19 04:56:49;;;;;;;;;13.25;12.25;;;;;24.91;54.94;101076.00;5076607;28;47353;-68
2022/05/19 04:59:14;;;;;;;;;11.75;11.75;;;;;24.82;55.27;101071.31;5061145;28;45335;-68
2022/05/19 05:01:51;;;;;;;;;11.00;11.00;;;;;24.90;54.63;101104.28;5056489;28;45256;-69
2022/05/19 05:04:17;;;;;;;;;12.50;12.50;;;;;24.93;55.00;101112.22;5055624;28;45468;-69
2022/05/19 05:06:42;;;;;;;;;17.00;15.00;;;;;24.80;55.30;101095.16;5054021;28;45390;-68
2022/05/19 05:09:08;;;;;;;;;10.75;10.25;;;;;24.90;55.13;101121.53;5054321;28;45416;-69
2022/05/19 05:11:34;;;;;;;;;12.50;11.25;;;;;24.70;54.88;101086.91;5059140;28;45474;-68
2022/05/19 05:13:59;;;;;;;;;11.75;11.50;;;;;24.91;55.16;101119.69;5060447;28;45274;-68
2022/05/19 05:16:25;;;;;;;;;15.75;13.50;;;;;24.87;55.30;101154.53;5053553;28;45317;-67
2022/05/19 05:19:30;;;;;;;;;15.25;13.25;;;;;24.66;54.74;101165.47;5052293;28;45661;-69
2022/05/19 05:22:49;;;;;;;;;;;;;;;;;;;;;
2022/05/19 05:28:38;;;;;;;;;11.50;11.25;;;;;24.88;55.23;101180.00;5052776;28;46110;-69
2022/05/19 05:31:55;;;;;;;;;12.25;12.25;;;;;24.63;55.37;101134.84;5061702;28;45505;-72
2022/05/19 05:34:25;;;;;;;;;;;;;;;;;;;;;
2022/05/19 05:37:17;;;;;;;;;13.00;13.00;;;;;24.86;55.10;101181.97;5059211;28;71980;-69
2022/05/19 05:40:10;;;;;;;;;12.25;12.00;;;;;24.68;54.92;101143.50;5060115;28;45452;-69
2022/05/19 05:42:38;;;;;;;;;16.25;15.00;;;;;24.84;55.36;101176.69;5069584;27;46109;-69
2022/05/19 05:45:35;;;;;;;;;;;;;;;;;;;;;
2022/05/19 05:48:20;;;;;;;;;;;;;;;;;;;;;
2022/05/19 05:57:32;;;;;;;;;15.00;12.00;;;;;24.77;55.73;101165.41;5038813;28;45488;-70
2022/05/19 06:00:00;;;;;;;;;11.75;11.75;;;;;24.80;55.56;101160.69;5055151;28;45476;-69
2022/05/19 06:02:28;;;;;;;;;12.50;12.00;;;;;24.86;55.22;101169.22;5058340;28;47293;-69
2022/05/19 06:05:37;;;;;;;;;;;;;;;;;;;;;
2022/05/19 06:08:16;;;;;;;;;;;;;;;;;;;;;
2022/05/19 06:10:52;;;;;;;;;14.50;13.25;;;;;24.62;56.02;101116.72;5055434;28;72714;-67
2022/05/19 06:13:20;;;;;;;;;12.75;12.25;;;;;24.82;55.49;101150.50;5063803;28;46969;-67
2022/05/19 06:15:59;;;;;;;;;;;;;;;;;;;;;
2022/05/19 06:18:29;;;;;;;;;13.00;13.00;;;;;24.91;55.95;101174.28;5055914;28;67457;-67
2022/05/19 06:21:10;;;;;;;;;;;;;;;;;;;;;
2022/05/19 06:24:12;;;;;;;;;;;;;;;;;;;;;
2022/05/19 06:26:39;;;;;;;;;12.50;12.00;;;;;24.80;55.72;101147.91;5047111;28;72748;-67
2022/05/19 06:29:27;;;;;;;;;13.00;13.00;;;;;24.84;55.27;101151.22;5061146;28;45427;-67
2022/05/19 06:32:40;;;;;;;;;;;;;;;;;;;;;
2022/05/19 06:35:19;;;;;;;;;;;;;;;;;;;;;
2022/05/19 06:38:00;;;;;;;;;;;;;;;;;;;;;
2022/05/19 06:40:41;;;;;;;;;;;;;;;;;;;;;
2022/05/19 06:43:25;;;;;;;;;12.75;12.75;;;;;24.92;55.51;101162.34;5056947;28;72492;-68
2022/05/19 06:46:11;;;;;;;;;;;;;;;;;;;;;
2022/05/19 06:48:53;;;;;;;;;;;;;;;;;;;;;
2022/05/19 06:54:28;;;;;;;;;16.25;14.50;;;;;24.89;55.84;101174.41;5041996;28;45548;-68
2022/05/19 06:57:09;;;;;;;;;;;;;;;;;;;;;
2022/05/19 06:59:51;;;;;;;;;14.75;14.75;;;;;24.98;55.62;101188.28;5050923;28;72784;-68
2022/05/19 07:02:47;;;;;;;;;17.00;15.00;;;;;24.85;55.46;101155.69;5053766;28;45365;-68
2022/05/19 07:05:18;;;;;;;;;13.25;13.25;;;;;24.85;55.75;101153.81;5050830;28;45354;-68
2022/05/19 07:11:01;;;;;;;;;;;;;;;;;;;;;
2022/05/19 07:13:37;;;;;;;;;14.75;10.75;;;;;25.04;55.76;101187.72;5054035;28;68829;-68
2022/05/19 07:16:34;;;;;;;;;;;;;;;;;;;;;
2022/05/19 07:22:15;;;;;;;;;13.00;13.00;;;;;24.88;56.17;101167.22;5058212;28;45651;-68
2022/05/19 07:25:18;;;;;;;;;;;;;;;;;;;;;
2022/05/19 07:28:13;;;;;;;;;12.25;11.00;;;;;24.92;55.84;101162.34;5056726;28;71871;-68
2022/05/19 07:30:41;;;;;;;;;13.50;13.50;;;;;25.04;55.61;101179.53;5055999;28;45545;-68
2022/05/19 07:33:28;;;;;;;;;13.25;13.25;;;;;25.05;55.88;101179.41;5073656;27;45433;-68
2022/05/19 07:35:58;;;;;;;;;14.25;14.25;;;;;24.89;54.85;101159.88;5057795;28;45407;-68
2022/05/19 07:38:51;;;;;;;;;14.00;13.50;;;;;25.07;55.52;101199.25;5053646;28;45416;-68
2022/05/19 07:41:55;;;;;;;;;16.75;15.25;;;;;24.99;56.27;101192.72;5052466;28;45387;-68
2022/05/19 07:44:28;;;;;;;;;;;;;;;;;;;;;
2022/05/19 07:47:29;;;;;;;;;;;;;;;;;;;;;
2022/05/19 07:50:09;;;;;;;;;14.50;13.50;;;;;25.04;56.24;101176.78;5058505;28;72065;-68
2022/05/19 07:53:34;;;;;;;;;;;;;;;;;;;;;
2022/05/19 07:56:18;;;;;;;;;;;;;;;;;;;;;
2022/05/19 07:58:55;;;;;;;;;;;;;;;;;;;;;
2022/05/19 08:01:25;;;;;;;;;14.00;13.50;;;;;25.30;55.74;101224.59;5055680;28;72778;-69
2022/05/19 08:04:05;;;;;;;;;;;;;;;;;;;;;
2022/05/19 08:06:33;;;;;;;;;18.50;17.00;;;;;25.28;56.00;101206.63;5049827;28;72805;-68
2022/05/19 08:18:06;;;;;;;;;16.25;14.50;;;;;25.45;55.76;101222.38;5059858;28;45454;-68
2022/05/19 08:20:39;;;;;;;;;16.75;16.25;;;;;25.65;54.80;101258.91;5059517;28;45560;-68
2022/05/19 08:23:24;;;;;;;;;;;;;;;;;;;;;
2022/05/19 08:26:01;;;;;;;;;13.25;12.75;;;;;25.59;55.56;101226.63;5058541;28;75324;-68
2022/05/19 08:28:40;;;;;;;;;;;;;;;;;;;;;
2022/05/19 08:31:18;;;;;;;;;14.00;14.00;;;;;25.67;55.64;101236.91;5059731;28;67904;-68
2022/05/19 08:34:19;;;;;;;;;;;;;;;;;;;;;
2022/05/19 08:36:49;;;;;;;;;15.50;13.75;;;;;25.73;56.00;101247.28;5047167;28;75270;-68
2022/05/19 08:39:28;;;;;;;;;16.75;16.00;;;;;25.77;55.00;101251.47;5056796;28;45468;-68
2022/05/19 08:42:06;;;;;;;;;15.00;14.25;;;;;25.95;55.48;101289.13;5059796;28;45603;-69
2022/05/19 08:44:49;;;;;;;;;;;;;;;;;;;;;
2022/05/19 08:47:24;;;;;;;;;14.75;14.25;;;;;25.82;55.10;101292.09;5058308;28;75338;-68
2022/05/19 08:50:47;;;;;;;;;;;;;;;;;;;;;
2022/05/19 08:53:14;;;;;;;;;;;;;;;;;;;;;
2022/05/19 08:56:01;;;;;;;;;13.00;13.00;;;;;25.70;54.47;101294.91;5058906;28;72825;-68
2022/05/19 08:59:21;;;;;;;;;;;;;;;;;;;;;
2022/05/19 09:02:09;;;;;;;;;;;;;;;;;;;;;
2022/05/19 09:04:57;;;;;;;;;10.00;8.50;;;;;25.83;54.08;101349.38;5052705;28;67397;-69
2022/05/19 09:10:45;;;;;;;;;10.00;9.25;;;;;25.61;53.51;101317.59;5049802;28;45670;-69
2022/05/19 09:13:27;;;;;;;;;8.75;8.75;;;;;25.86;52.96;101353.69;5023031;28;46139;-69
2022/05/19 09:15:53;;;;;;;;;7.25;7.25;;;;;25.67;53.28;101329.84;5059132;28;45473;-68
2022/05/19 09:18:29;;;;;;;;;9.25;7.00;;;;;25.49;52.98;101319.53;5059540;28;45745;-68
2022/05/19 09:20:56;;;;;;;;;7.75;6.50;;;;;25.55;52.78;101339.97;5059670;28;47325;-68
2022/05/19 09:23:27;;;;;;;;;7.25;6.00;;;;;25.61;53.69;101363.16;5075468;28;45418;-68
2022/05/19 09:26:03;;;;;;;;;9.00;8.00;;;;;25.72;52.57;101393.19;5059019;28;45590;-69
2022/05/19 09:28:29;;;;;;;;;7.75;7.75;;;;;25.63;52.73;101394.84;5074866;28;45551;-69
2022/05/19 09:30:59;;;;;;;;;7.75;6.25;;;;;25.52;52.65;101379.38;5074997;28;47078;-69
2022/05/19 09:33:37;;;;;;;;;6.00;6.00;;;;;25.64;52.15;101403.91;5050742;28;45793;-69
2022/05/19 09:36:19;;;;;;;;;10.25;7.50;;;;;25.35;51.88;101352.63;5068953;28;45484;-68
2022/05/19 09:39:14;;;;;;;;;6.75;6.75;;;;;25.48;51.93;101394.31;5057128;28;45637;-69
2022/05/19 09:42:22;;;;;;;;;;;;;;;;;;;;;
2022/05/19 09:45:08;;;;;;;;;;;;;;;;;;;;;
2022/05/19 09:47:48;;;;;;;;;14.00;13.75;;;;;25.26;51.38;101408.00;5053474;28;70402;-69
2022/05/19 09:50:33;;;;;;;;;16.25;15.75;;;;;25.47;51.13;101443.63;5059210;28;45477;-69
2022/05/19 09:53:02;;;;;;;;;22.75;16.75;;;;;25.41;51.19;101457.81;5051966;28;45409;-69
2022/05/19 09:55:39;;;;;;;;;16.25;14.00;;;;;25.14;50.20;101432.66;5056774;28;45746;-68
2022/05/19 09:58:13;;;;;;;;;14.25;14.25;;;;;25.37;50.67;101476.31;5055815;28;45597;-68
2022/05/19 10:00:53;;;;;;;;;11.50;11.50;;;;;25.15;50.75;101464.41;5056333;28;45368;-68
2022/05/19 10:03:46;;;;;;;;;;;;;;;;;;;;;
2022/05/19 10:06:23;;;;;;;;;11.25;11.25;;;;;25.05;50.76;101436.13;5044277;28;73296;-69
2022/05/19 10:09:01;;;;;;;;;11.75;10.75;;;;;25.23;50.24;101455.59;5053863;28;46086;-69
2022/05/19 10:11:30;;;;;;;;;12.00;12.00;;;;;25.11;50.09;101438.38;5057853;28;45422;-69
2022/05/19 10:14:18;;;;;;;;;;;;;;;;;;;;;
2022/05/19 10:17:08;;;;;;;;;11.50;9.00;;;;;25.24;50.67;101475.56;5046121;28;72761;-69
2022/05/19 10:19:39;;;;;;;;;9.50;8.00;;;;;25.05;49.92;101463.44;5059164;28;45361;-68
2022/05/19 10:22:40;;;;;;;;;7.00;7.00;;;;;25.17;49.62;101499.81;5044788;28;45446;-68
2022/05/19 10:25:44;;;;;;;;;;;;;;;;;;;;;
2022/05/19 10:31:48;;;;;;;;;6.00;6.00;;;;;24.90;49.20;101479.22;5056947;28;45430;-68
2022/05/19 10:34:45;;;;;;;;;4.00;4.00;;;;;25.07;49.80;101499.69;5052562;28;45414;-68
2022/05/19 10:37:18;;;;;;;;;3.00;3.00;;;;;25.13;49.18;101496.47;5073715;28;47229;-68
2022/05/19 10:40:00;;;;;;;;;4.75;3.00;;;;;25.06;48.75;101497.97;5061614;28;45740;-73
2022/05/19 10:42:59;;;;;;;;;2.25;1.25;;;;;25.06;48.54;101497.09;5058566;28;45160;-70
2022/05/19 10:45:33;;;;;;;;;4.50;3.00;;;;;25.06;48.25;101486.16;5061865;28;44807;-69
2022/05/19 10:48:15;;;;;;;;;3.00;3.00;;;;;25.09;47.79;101497.72;5044259;28;47946;-71
2022/05/19 10:51:00;;;;;;;;;4.00;4.00;;;;;25.12;48.30;101485.66;5058445;28;45332;-70
2022/05/19 10:53:51;;;;;;;;;4.75;4.75;;;;;25.13;48.51;101499.19;5057258;28;45267;-70
2022/05/19 10:56:52;;;;;;;;;5.00;5.00;;;;;25.17;47.77;101494.34;5073219;28;45609;-70
2022/05/19 10:59:26;;;;;;;;;4.00;3.00;;;;;25.12;47.94;101494.72;5039537;28;45372;-70
2022/05/19 11:02:06;;;;;;;;;2.00;2.00;;;;;25.05;47.85;101477.09;5051672;28;46035;-70
2022/05/19 11:04:38;;;;;;;;;4.25;3.25;;;;;25.20;47.19;101493.25;5055398;28;45559;-70
2022/05/19 11:07:29;;;;;;;;;4.25;4.00;;;;;25.21;47.88;101490.38;5057681;28;45481;-70
2022/05/19 11:10:04;;;;;;;;;3.00;3.00;;;;;25.24;47.37;101486.50;5058516;28;46562;-71
2022/05/19 11:12:36;;;;;;;;;1.25;1.25;;;;;25.28;46.92;101485.31;5058465;28;45517;-70
2022/05/19 11:15:21;;;;;;;;;3.50;2.00;;;;;25.26;46.96;101473.56;5058882;28;45517;-70
2022/05/19 11:18:03;;;;;;;;;3.00;2.25;;;;;25.08;46.71;101435.88;5062384;28;45399;-70
2022/05/19 11:20:36;;;;;;;;;3.50;3.00;;;;;25.25;46.99;101469.13;5049980;28;47602;-70
2022/05/19 11:23:20;;;;;;;;;3.25;3.25;;;;;25.27;47.39;101467.16;5059744;28;45634;-70
2022/05/19 11:28:44;;;;;;;;;3.00;3.00;;;;;25.26;47.08;101462.66;5051130;28;45432;-70
2022/05/19 11:31:31;;;;;;;;;4.00;3.00;;;;;25.38;46.60;101479.94;5060872;28;47067;-70
2022/05/19 11:34:01;;;;;;;;;1.50;1.50;;;;;25.38;46.03;101469.03;5060830;28;45389;-70
2022/05/19 11:36:41;;;;;;;;;3.75;3.75;;;;;25.36;46.74;101466.41;5054079;28;45446;-70
2022/05/19 11:39:27;;;;;;;;;4.75;3.00;;;;;25.48;46.08;101469.97;5064888;28;45580;-70
2022/05/19 11:41:57;;;;;;;;;2.00;2.00;;;;;25.28;45.31;101431.53;5077877;28;47279;-69
2022/05/19 11:44:30;;;;;;;;;2.00;1.00;;;;;25.32;45.73;101449.38;5077577;28;45474;-68
2022/05/19 11:47:14;;;;;;;;;;;;;;;;;;;;;
2022/05/19 11:55:59;;;;;;;;;2.25;1.00;;;;;25.51;45.51;101489.72;5058462;28;45627;-69
2022/05/19 11:59:02;;;;;;;;;;;;;;;;;;;;;
2022/05/19 12:01:53;;;;;;;;;;;;;;;;;;;;;
2022/05/19 12:04:30;;;;;;;;;1.25;1.25;;;;;25.62;44.40;101486.06;5056832;28;76837;-72
2022/05/19 12:07:06;;;;;;;;;1.75;1.00;;;;;25.70;44.13;101507.28;5077743;27;45794;-67
2022/05/19 12:09:44;;;;;;;;;2.25;2.25;;;;;25.77;44.03;101513.97;5059875;28;45517;-68
2022/05/19 12:12:29;;;;;;;;;;;;;;;;;;;;;
2022/05/19 12:15:34;;;;;;;;;1.75;1.75;;;;;25.88;43.35;101524.88;5059057;28;75729;-69
2022/05/19 12:18:21;;;;;;;;;2.00;2.00;;;;;25.91;43.27;101525.59;5072931;28;45464;-68
2022/05/19 12:20:51;;;;;;;;;2.00;2.00;;;;;25.85;43.48;101530.59;5049360;28;45563;-69
2022/05/19 12:23:26;;;;;;;;;1.25;1.25;;;;;25.71;42.97;101509.03;5058805;28;45735;-69
2022/05/19 12:25:58;;;;;;;;;3.00;2.00;;;;;25.69;43.39;101503.69;5060081;28;46477;-68
2022/05/19 12:29:20;;;;;;;;;1.00;1.00;;;;;25.91;43.74;101522.88;5060238;28;45378;-70
2022/05/19 12:32:09;;;;;;;;;3.00;2.00;;;;;25.96;43.86;101531.56;5054127;28;45462;-69
2022/05/19 12:35:06;;;;;;;;;1.25;1.25;;;;;25.88;43.66;101511.19;5054108;28;45809;-69
2022/05/19 12:37:42;;;;;;;;;3.00;3.00;;;;;25.91;43.63;101515.56;5053637;27;46865;-70
2022/05/19 12:40:19;;;;;;;;;3.00;1.75;;;;;26.06;43.52;101538.00;5048912;28;45405;-69
2022/05/19 12:42:52;;;;;;;;;3.25;3.00;;;;;25.94;43.19;101504.31;5050208;28;45523;-70
2022/05/19 12:45:58;;;;;;;;;;;;;;;;;;;;;
2022/05/19 12:49:23;;;;;;;;;;;;;;;;;;;;;
2022/05/19 12:51:53;;;;;;;;;3.75;3.50;;;;;26.05;43.33;101517.13;5024661;28;72022;-71
2022/05/19 12:54:20;;;;;;;;;2.00;2.00;;;;;26.05;44.00;101523.47;5053517;28;45566;-69
2022/05/19 12:56:45;;;;;;;;;2.00;2.00;;;;;26.04;43.52;101519.00;5060341;28;45559;-69
2022/05/19 12:59:23;;;;;;;;;2.00;2.00;;;;;26.10;43.38;101524.94;5057645;27;45506;-69
2022/05/19 13:01:53;;;;;;;;;2.00;2.00;;;;;26.10;43.82;101533.16;5071156;28;45676;-69
2022/05/19 13:04:36;;;;;;;;;2.25;1.75;;;;;26.13;43.67;101532.88;5071905;28;45768;-69
2022/05/19 13:07:25;;;;;;;;;4.75;3.50;;;;;26.17;43.07;101537.09;5053704;28;45779;-69
2022/05/19 13:10:01;;;;;;;;;3.00;3.00;;;;;25.91;43.20;101490.03;5054388;28;46267;-69
2022/05/19 13:12:34;;;;;;;;;2.75;2.75;;;;;26.06;43.74;101516.09;5054487;28;45917;-69
2022/05/19 13:15:02;;;;;;;;;3.50;3.50;;;;;26.08;43.79;101514.13;5072212;28;46029;-69
2022/05/19 13:17:34;;;;;;;;;2.75;2.50;;;;;25.98;43.25;101489.44;5069062;27;45863;-69
2022/05/19 13:20:04;;;;;;;;;3.00;3.00;;;;;26.21;43.22;101523.03;5054647;27;46148;-69
2022/05/19 13:22:34;;;;;;;;;2.50;2.50;;;;;26.01;43.30;101489.19;5062995;28;45860;-69
2022/05/19 13:25:10;;;;;;;;;3.00;2.00;;;;;26.31;43.44;101542.25;5057318;27;45575;-69
2022/05/19 13:30:29;;;;;;;;;4.75;3.25;;;;;26.32;42.63;101537.63;5058406;28;45835;-68
2022/05/19 13:33:32;;;;;;;;;1.50;1.00;;;;;26.10;43.27;101497.59;5059935;28;45537;-68
2022/05/19 13:36:06;;;;;;;;;2.50;2.50;;;;;26.16;43.44;101518.94;5045235;28;47259;-70
2022/05/19 13:38:43;;;;;;;;;5.00;3.50;;;;;26.20;43.35;101504.84;5051612;28;45670;-71
2022/05/19 13:41:34;;;;;;;;;;;;;;;;;;;;;
2022/05/19 13:51:49;;;;;;;;;3.00;3.00;;;;;26.43;42.92;101516.53;5046550;28;45492;-71
2022/05/19 13:54:50;;;;;;;;;1.25;1.25;;;;;26.52;42.91;101525.81;5036437;28;46346;-70